Аэропорт: Днепропетровск. Днепропетровск

ICAO: UKDD

METAR:
2019/05/26 14:00
UKDD 261400Z 31006MPS 9999 SCT011 BKN026CB 21/18 Q1009 R26/210170 TEMPO 32009G14MPS 1100 TSRA SCT006 BKN015CB
METAR:
2019/05/26 12:24
TAF UKDD 261105Z 2612/2712 32005MPS 9999 SCT020CB 
      TEMPO 2612/2618 32010G15MPS 1100 TSRA SCT006 BKN015CB 
      TEMPO 2700/2705 1400 BR SCT004